Time;durP1;ratioP1;P1;durP2;ratioP2;P2;SDS_P1;SDS_P2;PMS_P1;PMS_P2;Temp;Humidity;BMP_temperature;BMP_pressure;BME280_temperature;BME280_humidity;BME280_pressure;Samples;Min_cycle;Max_cycle;Signal;HPM_P1;HPM_P2
2021/06/26 00:01:53;;;;;;;35.00;23.73;;;16.90;92.30;;;;;;5073424;28;20029;-76
2021/06/26 00:04:18;;;;;;;33.25;24.05;;;16.80;92.30;;;;;;5072036;28;20017;-76
2021/06/26 00:06:44;;;;;;;31.17;23.08;;;16.80;92.30;;;;;;5055325;28;20497;-76
2021/06/26 00:09:10;;;;;;;30.00;23.15;;;16.80;92.40;;;;;;5055258;28;20032;-76
2021/06/26 00:11:35;;;;;;;28.75;22.52;;;16.80;92.40;;;;;;5073141;28;20106;-76
2021/06/26 00:14:02;;;;;;;34.95;24.48;;;16.70;92.40;;;;;;5071521;28;20048;-76
2021/06/26 00:16:27;;;;;;;30.80;23.25;;;16.70;92.40;;;;;;5073229;28;20491;-76
2021/06/26 00:18:53;;;;;;;32.15;23.08;;;16.70;92.40;;;;;;5055110;28;20029;-76
2021/06/26 00:21:18;;;;;;;31.95;22.20;;;16.70;92.40;;;;;;5055184;28;20029;-76
2021/06/26 00:23:44;;;;;;;32.10;22.88;;;16.60;92.50;;;;;;5073131;28;20029;-75
2021/06/26 00:26:10;;;;;;;31.83;22.88;;;16.60;92.50;;;;;;5071703;28;20029;-76
2021/06/26 00:28:35;;;;;;;28.75;21.58;;;16.60;92.60;;;;;;5071872;28;20037;-76
2021/06/26 00:31:02;;;;;;;31.30;23.52;;;16.50;92.60;;;;;;5054967;28;20066;-76
2021/06/26 00:33:27;;;;;;;34.22;24.00;;;16.50;92.60;;;;;;5055103;28;20376;-76
2021/06/26 00:35:53;;;;;;;32.33;22.20;;;16.50;92.70;;;;;;5071725;28;20024;-76
2021/06/26 00:38:18;;;;;;;30.88;23.40;;;16.50;92.70;;;;;;5054937;28;20027;-75
2021/06/26 00:40:44;;;;;;;32.50;24.42;;;16.50;92.80;;;;;;5071602;28;20013;-76
2021/06/26 00:43:10;;;;;;;37.03;23.85;;;16.40;92.80;;;;;;5072780;28;20150;-76
2021/06/26 00:45:36;;;;;;;35.88;24.70;;;16.40;92.80;;;;;;5072833;28;20032;-76
2021/06/26 00:48:01;;;;;;;32.42;23.80;;;16.40;92.80;;;;;;5072777;28;20035;-76
2021/06/26 00:50:29;;;;;;;34.45;24.67;;;16.40;92.90;;;;;;5054855;28;20106;-76
2021/06/26 00:52:55;;;;;;;32.38;24.02;;;16.40;92.90;;;;;;5072856;28;20028;-76
2021/06/26 00:55:21;;;;;;;34.65;22.60;;;16.30;93.00;;;;;;5071571;28;20025;-76
2021/06/26 00:57:58;;;;;;;33.55;23.85;;;16.30;93.20;;;;;;5054626;28;20020;-76
2021/06/26 01:00:28;;;;;;;35.10;24.83;;;16.30;92.90;;;;;;5076484;28;20021;-76
2021/06/26 01:02:54;;;;;;;33.90;25.65;;;16.30;93.00;;;;;;5075375;28;20031;-76
2021/06/26 01:05:20;;;;;;;36.28;24.63;;;16.30;93.00;;;;;;5076353;28;20025;-76
2021/06/26 01:07:47;;;;;;;36.17;25.90;;;16.20;93.00;;;;;;5075416;28;20090;-76
2021/06/26 01:10:13;;;;;;;37.25;24.90;;;16.20;93.00;;;;;;5075147;28;20082;-76
2021/06/26 01:12:39;;;;;;;36.70;25.45;;;16.20;93.10;;;;;;5074634;28;20628;-76
2021/06/26 01:15:06;;;;;;;35.75;24.73;;;16.20;93.10;;;;;;5076054;28;20029;-76
2021/06/26 01:17:32;;;;;;;37.92;26.23;;;16.20;93.10;;;;;;5076126;28;20024;-76
2021/06/26 01:20:00;;;;;;;34.90;24.92;;;16.10;93.10;;;;;;5074838;28;20074;-76
2021/06/26 01:22:30;;;;;;;35.17;24.83;;;16.20;93.20;;;;;;5076073;28;20051;-76
2021/06/26 01:24:56;;;;;;;39.35;25.40;;;16.20;93.20;;;;;;5075058;28;20020;-76
2021/06/26 01:27:22;;;;;;;36.70;25.80;;;16.20;93.30;;;;;;5074931;28;20472;-76
2021/06/26 01:29:53;;;;;;;37.28;25.02;;;16.10;93.30;;;;;;5075992;28;20039;-76
2021/06/26 01:32:19;;;;;;;36.03;25.33;;;16.10;93.30;;;;;;5074773;28;20033;-76
2021/06/26 01:34:45;;;;;;;37.95;26.05;;;16.10;93.30;;;;;;5074558;28;20103;-76
2021/06/26 01:37:12;;;;;;;39.13;27.42;;;16.10;93.30;;;;;;5057951;28;20489;-76
2021/06/26 01:39:37;;;;;;;39.25;26.45;;;16.10;93.40;;;;;;5075829;28;20044;-76
2021/06/26 01:42:04;;;;;;;38.33;26.52;;;16.10;93.40;;;;;;5057794;28;20488;-76
2021/06/26 01:44:30;;;;;;;36.53;25.73;;;16.00;93.40;;;;;;5074420;28;20033;-76
2021/06/26 01:46:55;;;;;;;40.05;25.52;;;16.00;93.40;;;;;;5075770;28;20035;-76
2021/06/26 01:49:21;;;;;;;37.60;25.52;;;16.00;93.40;;;;;;5074405;28;20028;-75
2021/06/26 01:51:47;;;;;;;39.15;25.67;;;16.00;93.50;;;;;;5075623;28;20474;-76
2021/06/26 01:54:14;;;;;;;37.38;26.63;;;16.00;93.50;;;;;;5074421;28;20024;-76
2021/06/26 01:56:40;;;;;;;35.95;26.42;;;15.90;93.50;;;;;;5075462;28;20099;-76
2021/06/26 01:59:07;;;;;;;36.75;25.30;;;15.90;93.50;;;;;;5075472;28;20036;-76
2021/06/26 02:01:33;;;;;;;41.25;26.83;;;15.90;93.50;;;;;;5075436;28;20051;-76
2021/06/26 02:03:59;;;;;;;35.20;26.20;;;15.90;93.50;;;;;;5057434;28;20369;-76
2021/06/26 02:06:25;;;;;;;39.47;27.85;;;15.80;93.50;;;;;;5074083;28;20038;-76
2021/06/26 02:08:51;;;;;;;41.63;27.70;;;15.90;93.60;;;;;;5057350;28;20504;-76
2021/06/26 02:11:16;;;;;;;38.58;26.23;;;15.80;93.60;;;;;;5073112;28;20036;-76
2021/06/26 02:13:42;;;;;;;43.42;26.85;;;15.90;93.60;;;;;;5057023;28;20053;-76
2021/06/26 02:16:08;;;;;;;42.95;26.98;;;15.90;93.60;;;;;;5074168;28;20020;-76
2021/06/26 02:18:34;;;;;;;39.38;27.23;;;15.80;93.60;;;;;;5073871;28;20028;-76
2021/06/26 02:21:00;;;;;;;37.90;27.17;;;15.80;93.70;;;;;;5057074;28;20082;-76
2021/06/26 02:23:27;;;;;;;41.55;27.98;;;15.80;93.70;;;;;;5073599;28;20463;-76
2021/06/26 02:25:52;;;;;;;41.35;28.05;;;15.80;93.80;;;;;;5074976;28;20032;-76
2021/06/26 02:28:18;;;;;;;39.17;27.88;;;15.80;93.80;;;;;;5073793;28;20035;-76
2021/06/26 02:30:43;;;;;;;38.58;26.20;;;15.80;93.80;;;;;;5075018;28;20090;-76
2021/06/26 02:33:09;;;;;;;37.70;26.00;;;15.80;93.80;;;;;;5073467;28;20115;-76
2021/06/26 02:35:35;;;;;;;39.97;26.85;;;15.70;93.80;;;;;;5056787;28;20462;-76
2021/06/26 02:38:00;;;;;;;35.10;25.55;;;15.70;93.80;;;;;;5056863;28;20070;-76
2021/06/26 02:40:26;;;;;;;39.75;26.88;;;15.70;93.80;;;;;;5073380;28;20020;-76
2021/06/26 02:42:51;;;;;;;40.38;25.95;;;15.70;94.00;;;;;;5073379;28;20031;-76
2021/06/26 02:45:17;;;;;;;39.97;26.63;;;15.70;93.70;;;;;;5056763;28;20024;-76
2021/06/26 02:47:43;;;;;;;42.03;27.95;;;15.60;93.70;;;;;;5073472;28;20028;-76
2021/06/26 02:50:09;;;;;;;37.10;24.83;;;15.60;93.70;;;;;;5073228;28;20077;-76
2021/06/26 02:52:36;;;;;;;37.28;26.80;;;15.60;93.80;;;;;;5073132;28;20017;-76
2021/06/26 02:55:03;;;;;;;41.10;27.40;;;15.60;93.90;;;;;;5072948;28;20388;-76
2021/06/26 02:57:28;;;;;;;39.88;27.23;;;15.60;93.90;;;;;;5073026;28;20428;-76
2021/06/26 02:59:54;;;;;;;38.03;27.60;;;15.60;94.00;;;;;;5072870;28;20028;-76
2021/06/26 03:02:20;;;;;;;41.65;28.50;;;15.70;94.10;;;;;;5073024;28;20028;-76
2021/06/26 03:04:46;;;;;;;39.58;25.98;;;15.70;94.20;;;;;;5074464;28;20029;-75
2021/06/26 03:07:11;;;;;;;38.47;26.08;;;15.70;94.20;;;;;;5056367;28;20020;-75
2021/06/26 03:09:37;;;;;;;39.28;26.75;;;15.70;94.20;;;;;;5074034;28;20024;-76
2021/06/26 03:12:04;;;;;;;37.45;25.98;;;15.70;94.20;;;;;;5073928;28;20041;-76
2021/06/26 03:14:30;;;;;;;37.88;26.95;;;15.70;94.20;;;;;;5073936;28;20054;-76
2021/06/26 03:16:55;;;;;;;42.85;29.65;;;15.70;94.20;;;;;;5039545;28;20055;-76
2021/06/26 03:19:21;;;;;;;38.90;26.40;;;15.70;94.20;;;;;;5074021;28;20112;-76
2021/06/26 03:21:47;;;;;;;38.78;25.92;;;15.70;94.30;;;;;;5073804;28;20056;-76
2021/06/26 03:24:13;;;;;;;39.13;27.58;;;15.70;94.30;;;;;;5073763;28;20524;-76
2021/06/26 03:26:38;;;;;;;38.45;26.38;;;15.80;94.40;;;;;;5072717;28;20378;-76
2021/06/26 03:29:05;;;;;;;36.60;26.17;;;15.80;94.40;;;;;;5072522;28;20032;-75
2021/06/26 03:31:31;;;;;;;36.13;26.40;;;15.80;94.40;;;;;;5073750;28;20035;-76
2021/06/26 03:33:56;;;;;;;38.47;26.63;;;15.80;94.40;;;;;;5072367;28;20024;-76
2021/06/26 03:36:24;;;;;;;36.65;26.63;;;15.80;94.50;;;;;;5055877;28;20391;-76
2021/06/26 03:38:50;;;;;;;37.75;26.52;;;15.90;94.50;;;;;;5072532;28;20379;-76
2021/06/26 03:41:15;;;;;;;41.63;26.90;;;15.90;94.50;;;;;;5072427;28;20024;-76
2021/06/26 03:43:41;;;;;;;36.47;26.00;;;15.90;94.80;;;;;;5073508;28;20029;-76
2021/06/26 03:46:07;;;;;;;36.25;25.52;;;16.00;94.60;;;;;;5073480;28;20060;-76
2021/06/26 03:48:33;;;;;;;37.80;27.23;;;16.00;94.60;;;;;;5073612;28;20039;-76
2021/06/26 03:50:59;;;;;;;36.80;24.73;;;16.00;94.60;;;;;;5073582;28;20503;-76
2021/06/26 03:53:26;;;;;;;36.17;26.15;;;16.00;94.60;;;;;;5073383;28;20165;-76
2021/06/26 03:55:52;;;;;;;37.03;26.52;;;16.10;94.60;;;;;;5055510;28;20112;-76
2021/06/26 03:58:26;;;;;;;33.15;24.50;;;16.10;94.60;;;;;;5038785;28;20518;-76
2021/06/26 04:00:52;;;;;;;34.90;25.63;;;16.10;94.70;;;;;;5071434;28;20431;-76
2021/06/26 04:03:18;;;;;;;36.50;25.73;;;16.20;94.70;;;;;;5052033;28;20029;-76
2021/06/26 04:05:44;;;;;;;37.70;26.52;;;16.20;94.70;;;;;;5052047;28;20104;-76
2021/06/26 04:08:11;;;;;;;36.03;25.90;;;16.20;94.70;;;;;;5066992;28;20458;-76
2021/06/26 04:10:40;;;;;;;36.05;25.67;;;16.30;94.70;;;;;;5053183;28;20088;-76
2021/06/26 04:13:06;;;;;;;37.13;26.55;;;16.30;94.70;;;;;;5051686;28;20037;-76
2021/06/26 04:15:32;;;;;;;36.67;27.33;;;16.30;94.70;;;;;;5043218;28;20024;-76
2021/06/26 04:17:59;;;;;;;37.35;26.83;;;16.40;94.80;;;;;;5087871;28;20024;-76
2021/06/26 04:20:25;;;;;;;34.85;25.52;;;16.40;94.70;;;;;;5090650;28;20024;-75
2021/06/26 04:22:50;;;;;;;35.42;25.30;;;16.40;95.00;;;;;;5073765;28;20020;-76
2021/06/26 04:25:17;;;;;;;36.22;26.08;;;16.50;94.70;;;;;;5091444;28;20429;-76
2021/06/26 04:27:44;;;;;;;35.70;26.65;;;16.50;94.70;;;;;;5093263;28;20605;-76
2021/06/26 04:30:10;;;;;;;37.72;26.42;;;16.50;94.70;;;;;;5093218;28;20073;-76
2021/06/26 04:32:38;;;;;;;37.33;26.55;;;16.60;94.70;;;;;;5092150;28;20414;-76
2021/06/26 04:35:05;;;;;;;37.42;26.77;;;16.60;94.60;;;;;;5096839;28;20024;-76
2021/06/26 04:37:31;;;;;;;36.45;27.08;;;16.60;94.60;;;;;;5097383;28;20035;-76
2021/06/26 04:39:56;;;;;;;38.20;27.58;;;16.60;94.60;;;;;;5095940;28;20467;-76
2021/06/26 04:42:22;;;;;;;38.78;26.92;;;16.60;94.50;;;;;;5095916;28;20048;-76
2021/06/26 04:44:48;;;;;;;37.97;25.60;;;16.60;94.50;;;;;;5097054;28;20024;-75
2021/06/26 04:47:14;;;;;;;37.08;26.52;;;16.70;94.50;;;;;;5097145;28;20032;-76
2021/06/26 04:49:40;;;;;;;36.50;25.95;;;16.70;94.50;;;;;;5095886;28;20042;-76
2021/06/26 04:52:06;;;;;;;41.83;29.08;;;16.70;94.40;;;;;;5079023;28;20028;-76
2021/06/26 04:54:31;;;;;;;38.92;27.65;;;16.80;94.50;;;;;;5095617;28;20028;-76
2021/06/26 04:56:57;;;;;;;37.20;26.10;;;16.80;94.50;;;;;;5078927;28;20400;-76
2021/06/26 04:59:22;;;;;;;38.53;26.48;;;16.80;94.50;;;;;;5097182;28;20382;-77
2021/06/26 05:01:48;;;;;;;37.55;27.70;;;16.90;94.50;;;;;;5097030;28;20016;-76
2021/06/26 05:04:14;;;;;;;39.88;27.08;;;16.90;94.40;;;;;;5078766;28;20085;-76
2021/06/26 05:06:39;;;;;;;38.13;27.00;;;16.90;94.40;;;;;;5095718;28;20085;-77
2021/06/26 05:09:05;;;;;;;37.53;26.70;;;17.00;94.40;;;;;;5096849;28;20107;-76
2021/06/26 05:11:31;;;;;;;39.28;26.05;;;17.00;94.30;;;;;;5095616;28;20030;-75
2021/06/26 05:13:57;;;;;;;34.42;24.83;;;17.00;94.50;;;;;;5078324;28;20139;-75
2021/06/26 05:16:22;;;;;;;36.90;25.20;;;17.10;94.20;;;;;;5095478;28;20036;-75
2021/06/26 05:18:48;;;;;;;37.58;24.75;;;17.10;94.20;;;;;;5095515;28;20483;-75
2021/06/26 05:21:14;;;;;;;36.38;25.63;;;17.20;94.10;;;;;;5095331;28;20024;-76
2021/06/26 05:23:39;;;;;;;33.58;24.58;;;17.20;94.10;;;;;;5096727;28;20032;-76
2021/06/26 05:26:09;;;;;;;35.10;23.58;;;17.20;94.10;;;;;;5095344;28;20029;-76
2021/06/26 05:28:34;;;;;;;28.88;22.70;;;17.30;94.00;;;;;;5095318;28;20425;-76
2021/06/26 05:31:00;;;;;;;29.90;22.85;;;17.30;94.00;;;;;;5096428;28;20038;-75
2021/06/26 05:33:26;;;;;;;31.80;23.02;;;17.30;93.90;;;;;;5096194;28;20032;-75
2021/06/26 05:35:51;;;;;;;33.20;22.17;;;17.40;93.90;;;;;;5078162;28;20119;-75
2021/06/26 05:38:17;;;;;;;31.70;22.90;;;17.40;93.80;;;;;;5094876;28;20035;-74
2021/06/26 05:40:42;;;;;;;31.45;22.92;;;17.40;93.70;;;;;;5096116;28;20027;-76
2021/06/26 05:43:08;;;;;;;28.83;21.63;;;17.40;93.60;;;;;;5077824;28;20035;-76
2021/06/26 05:45:34;;;;;;;32.40;23.77;;;17.50;93.60;;;;;;5093677;28;20028;-75
2021/06/26 05:47:59;;;;;;;27.15;20.98;;;17.50;93.50;;;;;;5077883;28;20035;-76
2021/06/26 05:50:25;;;;;;;32.47;23.20;;;17.50;93.40;;;;;;5077868;28;20034;-76
2021/06/26 05:52:55;;;;;;;30.77;22.52;;;17.50;93.40;;;;;;5096068;28;20089;-76
2021/06/26 05:55:22;;;;;;;28.88;21.67;;;17.60;93.30;;;;;;5096173;28;20012;-76
2021/06/26 05:57:48;;;;;;;31.15;22.58;;;17.60;93.30;;;;;;5095905;28;20020;-76
2021/06/26 06:00:16;;;;;;;30.05;23.05;;;17.60;93.20;;;;;;5095852;28;20494;-77
2021/06/26 06:02:42;;;;;;;31.52;23.83;;;17.60;93.10;;;;;;5095908;28;20024;-77
2021/06/26 06:05:08;;;;;;;31.27;23.75;;;17.60;93.10;;;;;;5094546;28;20113;-76
2021/06/26 06:07:36;;;;;;;31.23;22.85;;;17.70;93.00;;;;;;5095751;28;20056;-77
2021/06/26 06:10:06;;;;;;;32.83;23.80;;;17.70;93.00;;;;;;5095974;28;20430;-77
2021/06/26 06:12:34;;;;;;;30.90;23.50;;;17.80;92.90;;;;;;5095389;28;20055;-77
2021/06/26 06:15:05;;;;;;;34.15;24.40;;;17.80;92.80;;;;;;5095282;28;20036;-77
2021/06/26 06:17:30;;;;;;;34.05;24.15;;;17.90;92.80;;;;;;5095431;28;20032;-77
2021/06/26 06:19:56;;;;;;;31.33;23.90;;;17.90;92.70;;;;;;5095584;28;20028;-77
2021/06/26 06:22:23;;;;;;;34.35;24.13;;;17.90;92.60;;;;;;5094140;28;20027;-77
2021/06/26 06:24:49;;;;;;;31.63;24.17;;;18.00;92.60;;;;;;5077755;28;20028;-77
2021/06/26 06:27:15;;;;;;;33.75;23.65;;;18.00;92.80;;;;;;5094150;28;20032;-77
2021/06/26 06:29:40;;;;;;;36.72;25.02;;;18.10;92.50;;;;;;5077019;28;20028;-77
2021/06/26 06:32:06;;;;;;;31.60;22.55;;;18.20;92.50;;;;;;5095244;28;20036;-77
2021/06/26 06:34:32;;;;;;;33.83;24.27;;;18.30;92.50;;;;;;5077045;28;20028;-77
2021/06/26 06:36:58;;;;;;;28.30;21.83;;;18.40;92.40;;;;;;5077040;28;20548;-77
2021/06/26 06:39:25;;;;;;;30.75;22.67;;;18.50;92.30;;;;;;5094932;28;20028;-77
2021/06/26 06:41:51;;;;;;;27.27;21.60;;;18.50;92.10;;;;;;5093840;28;20028;-77
2021/06/26 06:44:16;;;;;;;30.45;23.00;;;18.60;92.00;;;;;;5095019;28;20043;-77
2021/06/26 06:46:42;;;;;;;29.10;22.60;;;18.60;91.90;;;;;;5093821;28;20047;-77
2021/06/26 06:49:08;;;;;;;31.67;21.98;;;18.70;91.80;;;;;;5094907;28;20032;-77
2021/06/26 06:51:34;;;;;;;28.90;21.80;;;18.60;91.70;;;;;;5094668;28;20031;-77
2021/06/26 06:53:59;;;;;;;28.75;21.15;;;18.70;91.60;;;;;;5093486;28;20084;-77
2021/06/26 06:56:25;;;;;;;26.15;20.65;;;18.70;91.50;;;;;;5077020;28;20082;-77
2021/06/26 06:58:50;;;;;;;29.77;21.55;;;18.70;91.50;;;;;;5074148;28;20036;-77
2021/06/26 07:01:16;;;;;;;27.70;20.65;;;18.70;91.40;;;;;;5056973;28;20489;-77
2021/06/26 07:03:42;;;;;;;28.02;20.75;;;18.70;91.40;;;;;;5073527;28;20029;-77
2021/06/26 07:06:07;;;;;;;25.40;19.85;;;18.70;91.30;;;;;;5073894;28;20028;-77
2021/06/26 07:08:33;;;;;;;27.33;20.02;;;18.70;91.20;;;;;;5052928;28;20405;-77
2021/06/26 07:10:58;;;;;;;25.58;19.55;;;18.80;91.20;;;;;;5053296;28;20037;-76
2021/06/26 07:13:24;;;;;;;27.13;19.08;;;18.80;91.10;;;;;;5058775;28;20102;-77
2021/06/26 07:15:50;;;;;;;26.83;20.10;;;18.80;91.10;;;;;;5070454;28;21102;-77
2021/06/26 07:18:15;;;;;;;24.40;18.30;;;18.80;90.90;;;;;;5056231;28;20037;-77
2021/06/26 07:20:41;;;;;;;22.75;18.52;;;18.90;90.80;;;;;;5074053;28;20036;-77
2021/06/26 07:23:07;;;;;;;23.13;18.17;;;18.90;90.80;;;;;;5056459;28;20028;-77
2021/06/26 07:25:33;;;;;;;20.15;16.45;;;18.90;90.70;;;;;;5073818;28;20024;-77
2021/06/26 07:27:58;;;;;;;21.77;16.27;;;18.90;90.60;;;;;;5072080;28;20021;-77
2021/06/26 07:30:24;;;;;;;20.52;16.60;;;19.00;90.60;;;;;;5072823;28;20078;-77
2021/06/26 07:32:50;;;;;;;21.90;16.20;;;19.00;90.50;;;;;;5074268;28;20362;-77
2021/06/26 07:35:16;;;;;;;22.38;15.50;;;19.10;90.50;;;;;;5070891;28;20476;-77
2021/06/26 07:37:43;;;;;;;19.58;15.93;;;19.10;90.50;;;;;;5073086;28;20036;-77
2021/06/26 07:40:09;;;;;;;19.35;14.88;;;19.20;90.40;;;;;;5072007;28;20112;-77
2021/06/26 07:42:35;;;;;;;17.23;14.18;;;19.20;90.30;;;;;;5071593;28;20016;-77
2021/06/26 07:45:01;;;;;;;20.75;15.10;;;19.30;90.30;;;;;;5070183;28;20119;-77
2021/06/26 07:47:27;;;;;;;18.75;15.95;;;19.30;90.10;;;;;;5071776;28;20515;-77
2021/06/26 07:49:52;;;;;;;20.83;15.73;;;19.40;90.00;;;;;;5071768;28;20031;-77
2021/06/26 07:52:18;;;;;;;19.42;14.35;;;19.40;89.70;;;;;;5071937;28;20032;-77
2021/06/26 07:54:43;;;;;;;18.38;14.45;;;19.50;89.50;;;;;;5072848;28;20036;-77
2021/06/26 07:57:09;;;;;;;18.95;14.18;;;19.50;89.30;;;;;;5071008;28;20492;-77
2021/06/26 07:59:34;;;;;;;17.42;12.30;;;19.60;89.00;;;;;;5073704;28;20024;-77
2021/06/26 08:02:00;;;;;;;18.77;13.52;;;19.60;88.90;;;;;;5072610;28;20025;-78
2021/06/26 08:04:26;;;;;;;17.38;13.32;;;19.70;88.60;;;;;;5072591;28;20025;-76
2021/06/26 08:06:52;;;;;;;17.42;12.85;;;19.80;88.20;;;;;;5073309;28;20107;-77
2021/06/26 08:09:17;;;;;;;18.88;14.20;;;19.80;87.80;;;;;;5071535;28;20033;-77
2021/06/26 08:11:43;;;;;;;16.83;12.98;;;19.90;87.50;;;;;;5073608;28;20025;-77
2021/06/26 08:14:08;;;;;;;19.73;14.77;;;20.00;87.30;;;;;;5072394;28;20136;-76
2021/06/26 08:16:34;;;;;;;19.20;15.18;;;20.00;87.00;;;;;;5072124;28;20031;-76
2021/06/26 08:19:00;;;;;;;22.77;17.83;;;20.10;86.70;;;;;;5072403;28;20035;-77
2021/06/26 08:21:26;;;;;;;21.98;15.90;;;20.10;86.40;;;;;;5073648;28;20029;-77
2021/06/26 08:23:52;;;;;;;19.50;15.68;;;20.30;86.30;;;;;;5072142;28;20025;-78
2021/06/26 08:26:18;;;;;;;19.92;16.27;;;20.30;85.80;;;;;;5051625;28;20025;-78
2021/06/26 08:28:44;;;;;;;19.25;15.50;;;20.40;85.40;;;;;;5054821;28;20033;-78
2021/06/26 08:31:10;;;;;;;18.88;14.02;;;20.40;85.20;;;;;;5072071;28;20511;-79
2021/06/26 08:33:36;;;;;;;20.02;15.77;;;20.50;84.80;;;;;;5071604;28;20107;-80
2021/06/26 08:36:03;;;;;;;21.05;15.38;;;20.60;84.20;;;;;;5071817;28;20020;-76
2021/06/26 08:38:28;;;;;;;20.75;15.82;;;20.70;84.10;;;;;;5072171;28;20032;-77
2021/06/26 08:40:55;;;;;;;19.02;13.77;;;20.80;83.80;;;;;;5051770;28;20029;-78
2021/06/26 08:43:22;;;;;;;19.65;15.98;;;20.80;83.50;;;;;;5051826;28;20481;-79
2021/06/26 08:45:48;;;;;;;18.75;14.27;;;20.90;83.00;;;;;;5066576;28;20040;-76
2021/06/26 08:48:14;;;;;;;17.38;13.80;;;21.00;82.80;;;;;;5072606;28;20021;-78
2021/06/26 08:50:40;;;;;;;19.33;14.05;;;21.10;82.60;;;;;;5051463;28;20025;-76
2021/06/26 08:53:06;;;;;;;17.95;14.00;;;21.10;82.30;;;;;;5065982;28;20074;-77
2021/06/26 08:55:32;;;;;;;16.48;12.35;;;21.20;82.20;;;;;;5072320;28;20385;-77
2021/06/26 08:58:01;;;;;;;16.83;12.55;;;21.30;81.90;;;;;;5072879;28;20024;-78
2021/06/26 09:00:27;;;;;;;17.67;12.80;;;21.40;81.50;;;;;;5073104;28;20426;-77
2021/06/26 09:03:14;;;;;;;15.68;12.45;;;21.50;81.20;;;;;;5071746;28;20025;-78
2021/06/26 09:05:41;;;;;;;13.88;10.90;;;21.50;79.40;;;;;;5071033;28;20107;-77
2021/06/26 09:08:13;;;;;;;14.43;11.02;;;21.60;79.40;;;;;;5054954;28;20337;-77
2021/06/26 09:10:39;;;;;;;14.52;10.90;;;21.70;79.20;;;;;;5073063;28;20048;-77
2021/06/26 09:13:28;;;;;;;15.02;10.40;;;21.80;78.90;;;;;;5072889;28;20119;-78
2021/06/26 09:16:07;;;;;;;15.93;10.05;;;21.90;78.30;;;;;;5055515;28;20024;-77
2021/06/26 09:18:47;;;;;;;11.90;9.57;;;22.00;77.50;;;;;;5071617;28;20023;-77
2021/06/26 09:21:24;;;;;;;12.85;9.60;;;22.10;76.90;;;;;;5075071;28;20028;-77
2021/06/26 09:24:11;;;;;;;12.88;9.82;;;22.20;76.70;;;;;;5075229;28;20380;-79
2021/06/26 09:26:58;;;;;;;15.82;10.25;;;22.30;75.40;;;;;;5075532;28;20020;-77
2021/06/26 09:29:24;;;;;;;15.32;9.57;;;22.30;74.20;;;;;;5074910;28;20025;-77
2021/06/26 09:32:02;;;;;;;11.40;9.38;;;22.40;73.90;;;;;;5058863;28;20044;-76
2021/06/26 09:34:45;;;;;;;10.88;9.02;;;22.50;73.20;;;;;;5075152;28;20028;-74
2021/06/26 09:37:12;;;;;;;13.40;9.10;;;22.60;73.20;;;;;;5075217;28;20509;-75
2021/06/26 09:39:40;;;;;;;11.70;8.68;;;22.60;72.90;;;;;;5075622;28;20020;-78
2021/06/26 09:42:32;;;;;;;12.80;8.27;;;22.70;71.80;;;;;;5074894;28;20047;-75
2021/06/26 09:45:05;;;;;;;11.75;8.80;;;22.80;71.50;;;;;;5074984;28;20035;-77
2021/06/26 09:47:33;;;;;;;;;;;22.90;71.50;;;;;;5059474;28;20472;-77
2021/06/26 09:50:19;;;;;;;11.23;8.20;;;23.00;71.10;;;;;;5075165;28;19940;-76
2021/06/26 09:52:46;;;;;;;11.55;8.43;;;23.10;71.30;;;;;;5074683;28;20086;-77
2021/06/26 09:55:21;;;;;;;13.88;9.30;;;23.20;71.00;;;;;;5075930;28;20025;-77
2021/06/26 09:57:47;;;;;;;13.93;8.35;;;23.30;70.50;;;;;;5074790;28;20017;-76
2021/06/26 10:00:16;;;;;;;11.80;9.15;;;23.40;69.70;;;;;;5076082;28;20024;-78
2021/06/26 10:02:43;;;;;;;10.07;8.55;;;23.40;69.30;;;;;;5075946;28;20017;-76
2021/06/26 10:05:10;;;;;;;12.00;9.27;;;23.40;68.90;;;;;;5075605;28;20380;-77
2021/06/26 10:07:38;;;;;;;12.45;8.65;;;23.50;68.70;;;;;;5074402;28;20114;-76
2021/06/26 10:10:04;;;;;;;12.05;9.32;;;23.60;68.60;;;;;;5074391;28;20484;-81
2021/06/26 10:12:30;;;;;;;13.68;10.48;;;23.70;68.20;;;;;;5075777;28;20140;-77
2021/06/26 10:14:56;;;;;;;13.25;9.25;;;23.80;66.90;;;;;;5074589;28;20512;-77
2021/06/26 10:17:22;;;;;;;13.35;9.60;;;23.90;66.80;;;;;;5075808;28;20029;-79
2021/06/26 10:19:51;;;;;;;11.55;9.60;;;24.00;66.60;;;;;;5074276;28;20094;-77
2021/06/26 10:22:17;;;;;;;13.85;8.75;;;24.10;66.40;;;;;;5074714;28;20107;-78
2021/06/26 10:24:44;;;;;;;13.57;10.10;;;24.30;66.50;;;;;;5075588;28;20067;-78
2021/06/26 10:27:36;;;;;;;12.65;9.75;;;24.40;66.00;;;;;;5057487;28;20033;-77
2021/06/26 10:30:29;;;;;;;13.00;9.52;;;24.50;65.50;;;;;;5070775;28;20064;-78
2021/06/26 10:32:56;;;;;;;14.10;10.98;;;24.70;65.10;;;;;;5069717;28;20029;-77
2021/06/26 10:35:25;;;;;;;11.93;8.73;;;24.80;65.10;;;;;;5074334;28;20028;-76
2021/06/26 10:38:10;;;;;;;9.63;7.65;;;24.80;64.30;;;;;;5075049;28;20133;-79
2021/06/26 10:40:39;;;;;;;10.30;8.15;;;24.90;64.10;;;;;;5075059;28;20032;-77
2021/06/26 10:43:27;;;;;;;10.82;9.25;;;24.90;64.10;;;;;;5075250;28;20029;-77
2021/06/26 10:46:15;;;;;;;12.07;8.07;;;25.00;63.70;;;;;;5074891;28;20480;-77
2021/06/26 10:48:53;;;;;;;12.43;9.52;;;25.20;63.50;;;;;;5073661;28;20036;-76
2021/06/26 10:51:37;;;;;;;11.40;9.05;;;25.30;63.70;;;;;;5075141;28;20025;-79
2021/06/26 10:54:17;;;;;;;13.27;8.90;;;25.40;63.10;;;;;;5073733;28;20024;-78
2021/06/26 10:56:44;;;;;;;11.95;9.25;;;25.50;62.60;;;;;;5073489;28;20399;-77
2021/06/26 10:59:15;;;;;;;10.90;8.60;;;25.60;62.40;;;;;;5073667;28;20036;-78
2021/06/26 11:01:54;;;;;;;9.63;8.07;;;25.80;61.90;;;;;;5074525;28;20025;-79
2021/06/26 11:04:20;;;;;;;11.10;8.18;;;26.00;61.00;;;;;;5071441;28;20021;-76
2021/06/26 11:06:50;;;;;;;11.30;7.93;;;26.20;60.80;;;;;;5074844;28;20044;-77
2021/06/26 11:09:16;;;;;;;9.43;7.55;;;26.40;60.10;;;;;;5074690;28;20077;-76
2021/06/26 11:11:50;;;;;;;11.45;7.70;;;26.60;59.70;;;;;;5074493;28;20033;-78
2021/06/26 11:14:21;;;;;;;9.57;8.07;;;26.80;58.70;;;;;;5074385;28;20486;-76
2021/06/26 11:16:53;;;;;;;11.68;8.07;;;27.00;57.90;;;;;;5073291;28;20031;-77
2021/06/26 11:19:21;;;;;;;10.63;8.30;;;27.20;57.50;;;;;;5073070;28;20107;-78
2021/06/26 11:21:52;;;;;;;12.10;8.25;;;27.50;56.80;;;;;;5074169;28;20493;-78
2021/06/26 11:24:30;;;;;;;10.95;8.32;;;27.60;56.10;;;;;;5072862;28;20056;-79
2021/06/26 11:26:56;;;;;;;13.18;8.50;;;27.90;55.40;;;;;;5074456;28;20472;-78
2021/06/26 11:29:23;;;;;;;12.65;8.98;;;28.10;54.90;;;;;;5074120;28;20042;-78
2021/06/26 11:31:49;;;;;;;14.07;9.20;;;28.20;54.50;;;;;;5056512;28;20021;-77
2021/06/26 11:34:14;;;;;;;9.23;7.85;;;28.40;54.00;;;;;;5056112;28;20028;-78
2021/06/26 11:36:40;;;;;;;8.82;6.97;;;28.60;53.40;;;;;;5056298;28;20025;-79
2021/06/26 11:39:06;;;;;;;13.25;7.88;;;28.80;52.80;;;;;;5072844;28;20037;-77
2021/06/26 11:41:31;;;;;;;10.18;7.82;;;29.00;52.50;;;;;;5072537;28;20032;-82
2021/06/26 11:43:57;;;;;;;10.82;8.85;;;29.10;52.20;;;;;;5056146;28;20122;-80
2021/06/26 11:46:22;;;;;;;11.10;7.88;;;29.20;51.50;;;;;;5072602;28;20060;-81
2021/06/26 11:48:51;;;;;;;11.80;7.88;;;29.30;51.10;;;;;;5056126;28;20024;-77
2021/06/26 11:51:17;;;;;;;10.80;8.10;;;29.40;51.70;;;;;;5073763;28;20024;-78
2021/06/26 11:53:43;;;;;;;10.13;7.25;;;29.60;50.90;;;;;;5056052;28;20086;-79
2021/06/26 11:56:14;;;;;;;9.25;7.50;;;29.70;50.20;;;;;;5056603;28;20043;-78
2021/06/26 11:58:41;;;;;;;9.73;7.85;;;29.90;49.30;;;;;;5072482;28;20024;-81
2021/06/26 12:01:09;;;;;;;11.23;8.13;;;30.00;49.00;;;;;;5072869;28;20469;-78
2021/06/26 12:03:35;;;;;;;9.60;7.85;;;30.20;48.80;;;;;;5072186;28;20031;-78
2021/06/26 12:06:12;;;;;;;8.48;6.53;;;30.30;48.50;;;;;;5052074;28;20033;-78
2021/06/26 12:08:46;;;;;;;8.65;7.15;;;30.40;48.00;;;;;;5069023;28;20029;-76
2021/06/26 12:11:17;;;;;;;9.38;6.88;;;30.50;47.90;;;;;;5069184;28;20052;-77
2021/06/26 12:13:45;;;;;;;8.07;6.13;;;30.50;47.80;;;;;;5068813;28;20512;-80
2021/06/26 12:16:14;;;;;;;7.90;6.93;;;30.50;47.60;;;;;;5063193;28;20491;-82
2021/06/26 12:18:51;;;;;;;10.25;6.90;;;30.60;47.30;;;;;;5061773;28;20032;-81
2021/06/26 12:21:19;;;;;;;8.60;6.38;;;30.70;46.70;;;;;;5072614;28;20024;-80
2021/06/26 12:23:50;;;;;;;12.43;6.45;;;30.80;46.50;;;;;;5085069;28;20371;-78
2021/06/26 12:26:21;;;;;;;8.70;6.75;;;31.00;45.70;;;;;;5087730;28;20361;-79
2021/06/26 12:28:47;;;;;;;9.10;6.32;;;31.10;45.50;;;;;;5073134;28;20020;-77
2021/06/26 12:31:13;;;;;;;7.88;6.05;;;31.20;45.60;;;;;;5071933;28;20078;-80
2021/06/26 12:33:40;;;;;;;8.23;6.50;;;31.30;45.60;;;;;;5073332;28;20037;-80